Time;durP1;ratioP1;P1;durP2;ratioP2;P2;SDS_P1;SDS_P2;PMS_P1;PMS_P2;Temp;Humidity;BMP_temperature;BMP_pressure;BME280_temperature;BME280_humidity;BME280_pressure;Samples;Min_cycle;Max_cycle;Signal;HPM_P1;HPM_P2
2022/07/21 06:47:04;;;;;;;;;;;;;;;;;;;;;
2022/07/21 06:51:17;;;;;;;9.55;4.20;;;21.50;1.00;;;;;;6040568;23;20078;-94
2022/07/21 06:54:19;;;;;;;5.80;4.20;;;21.50;1.00;;;;;;5996407;23;20094;-94
2022/07/21 06:57:44;;;;;;;10.65;6.22;;;21.40;1.00;;;;;;6015865;23;20030;-94
2022/07/21 07:05:01;;;;;;;;;;;;;;;;;;;;;
2022/07/21 07:08:15;;;;;;;10.13;5.20;;;21.40;1.00;;;;;;6024352;23;20038;-93
2022/07/21 07:11:40;;;;;;;;;;;21.40;1.00;;;;;;5999699;23;20023;-94
2022/07/21 07:17:57;;;;;;;9.73;5.15;;;21.40;1.00;;;;;;6016018;23;20023;-92
2022/07/21 07:20:56;;;;;;;6.00;4.03;;;21.50;1.00;;;;;;6066755;23;20018;-94
2022/07/21 07:24:12;;;;;;;6.72;4.47;;;21.50;1.00;;;;;;6131795;23;20105;-93
2022/07/21 07:29:48;;;;;;;8.73;4.72;;;21.50;1.00;;;;;;6126437;23;20112;-92
2022/07/21 07:32:48;;;;;;;9.98;4.22;;;21.50;1.00;;;;;;6024744;23;20026;-93
2022/07/21 07:35:37;;;;;;;9.77;5.00;;;21.50;1.00;;;;;;6044348;23;20018;-94
2022/07/21 07:42:06;;;;;;;10.27;4.30;;;21.50;1.00;;;;;;5955006;24;20024;-93
2022/07/21 07:48:28;;;;;;;6.63;3.97;;;21.50;1.00;;;;;;5923567;24;20473;-93
2022/07/21 07:51:19;;;;;;;7.65;3.88;;;21.50;1.00;;;;;;5911648;24;20025;-93
2022/07/21 07:54:24;;;;;;;6.82;4.30;;;21.40;1.00;;;;;;5912238;24;20041;-94
2022/07/21 07:57:18;;;;;;;10.02;4.93;;;21.50;1.00;;;;;;5912970;24;20024;-94
2022/07/21 08:00:24;;;;;;;7.57;4.72;;;21.50;1.00;;;;;;5911093;24;20052;-94
2022/07/21 08:11:31;;;;;;;9.77;4.25;;;21.40;1.00;;;;;;5929855;24;20039;-93
2022/07/21 08:14:46;;;;;;;8.88;4.22;;;21.40;1.00;;;;;;6020247;23;20094;-94
2022/07/21 08:21:45;;;;;;;6.38;4.03;;;21.40;1.00;;;;;;5900639;24;20062;-93
2022/07/21 08:24:43;;;;;;;7.38;4.45;;;21.40;1.00;;;;;;5912250;23;20035;-93
2022/07/21 08:27:39;;;;;;;8.25;4.18;;;21.40;1.00;;;;;;5994690;23;20028;-93
2022/07/21 08:30:36;;;;;;;6.07;4.40;;;21.30;1.00;;;;;;6000457;23;20015;-93
2022/07/21 08:33:13;;;;;;;8.10;3.85;;;21.30;1.00;;;;;;6043415;23;20007;-93
2022/07/21 08:35:59;;;;;;;9.43;4.05;;;21.30;1.00;;;;;;6021623;23;20015;-93
2022/07/21 08:38:58;;;;;;;5.65;4.47;;;21.30;1.00;;;;;;6038918;23;20029;-93
2022/07/21 08:41:43;;;;;;;4.85;3.70;;;21.30;1.00;;;;;;6121335;23;19998;-93
2022/07/21 08:44:59;;;;;;;9.30;4.18;;;21.30;1.00;;;;;;6114446;23;20080;-93
2022/07/21 08:47:29;;;;;;;4.93;3.60;;;21.30;1.00;;;;;;6133025;23;20467;-93
2022/07/21 08:50:08;;;;;;;6.83;4.13;;;21.30;1.00;;;;;;6135859;23;20057;-92
2022/07/21 08:52:48;;;;;;;6.65;3.80;;;21.30;1.00;;;;;;6113070;23;20260;-92
2022/07/21 08:55:23;;;;;;;7.22;3.88;;;21.30;1.00;;;;;;6110090;23;20449;-93
2022/07/21 08:57:53;;;;;;;7.28;3.28;;;21.30;1.00;;;;;;6133434;23;20017;-92
2022/07/21 09:00:37;;;;;;;7.20;4.18;;;21.20;1.00;;;;;;6133413;23;20021;-92
2022/07/21 09:03:29;;;;;;;7.82;4.00;;;21.30;1.00;;;;;;6112317;23;20063;-92
2022/07/21 09:06:16;;;;;;;9.40;3.78;;;21.30;1.00;;;;;;6109730;23;20382;-91
2022/07/21 09:08:54;;;;;;;6.32;4.13;;;21.20;1.00;;;;;;6110070;23;20069;-91
2022/07/21 09:11:31;;;;;;;6.40;3.72;;;21.20;1.00;;;;;;6134389;23;20017;-91
2022/07/21 09:14:16;;;;;;;7.85;3.67;;;21.20;1.00;;;;;;6133289;23;20048;-92
2022/07/21 09:16:48;;;;;;;7.43;4.30;;;21.20;1.00;;;;;;6109622;23;20022;-92
2022/07/21 09:19:22;;;;;;;8.15;3.92;;;21.20;1.00;;;;;;6133937;23;20014;-91
2022/07/21 09:21:53;;;;;;;5.88;4.15;;;21.20;1.00;;;;;;6108643;23;20024;-91
2022/07/21 09:24:28;;;;;;;7.57;3.85;;;21.20;1.00;;;;;;6132614;23;20021;-91
2022/07/21 09:27:15;;;;;;;6.60;4.25;;;21.20;1.00;;;;;;6108407;23;20101;-91
2022/07/21 09:29:56;;;;;;;6.80;3.90;;;21.20;1.00;;;;;;6132873;23;20104;-91
2022/07/21 09:32:24;;;;;;;8.98;4.13;;;21.20;1.00;;;;;;6133139;23;20041;-92
2022/07/21 09:35:00;;;;;;;8.45;3.85;;;21.20;1.00;;;;;;6108079;23;20021;-92
2022/07/21 09:37:34;;;;;;;7.10;3.58;;;21.20;1.00;;;;;;6109860;23;20022;-91
2022/07/21 09:40:14;;;;;;;5.90;3.70;;;21.20;1.00;;;;;;6133033;23;20013;-92
2022/07/21 09:42:48;;;;;;;6.22;3.38;;;21.20;1.00;;;;;;6132761;23;20021;-91
2022/07/21 09:45:18;;;;;;;5.53;4.00;;;21.20;1.00;;;;;;6107850;23;20049;-91
2022/07/21 09:47:45;;;;;;;5.07;3.53;;;21.20;1.00;;;;;;6132688;23;20022;-92
2022/07/21 09:50:15;;;;;;;4.15;3.05;;;21.20;1.00;;;;;;6131828;23;20025;-91
2022/07/21 09:52:55;;;;;;;5.10;3.63;;;21.20;1.00;;;;;;6131759;23;20018;-92
2022/07/21 09:55:25;;;;;;;6.45;3.38;;;21.20;1.00;;;;;;6108046;23;20017;-91
2022/07/21 09:57:55;;;;;;;6.30;3.63;;;21.20;1.00;;;;;;6134137;23;20010;-92
2022/07/21 10:00:23;;;;;;;9.65;4.32;;;21.20;1.00;;;;;;6132339;23;20017;-92
2022/07/21 10:02:53;;;;;;;7.50;3.97;;;21.20;1.00;;;;;;6108640;23;20017;-91
2022/07/21 10:05:21;;;;;;;5.97;3.92;;;21.20;1.00;;;;;;6108056;23;20032;-91
2022/07/21 10:08:01;;;;;;;6.13;3.33;;;21.20;1.00;;;;;;6133911;23;20024;-92
2022/07/21 10:10:28;;;;;;;4.75;3.17;;;21.20;1.00;;;;;;6131941;23;20108;-92
2022/07/21 10:13:16;;;;;;;4.93;3.45;;;21.20;1.00;;;;;;6136322;23;20021;-91
2022/07/21 10:15:55;;;;;;;8.45;3.83;;;21.20;1.00;;;;;;6134377;23;20021;-92
2022/07/21 10:18:27;;;;;;;5.95;4.22;;;21.20;1.00;;;;;;6156315;23;20022;-91
2022/07/21 10:21:19;;;;;;;4.15;2.97;;;21.20;1.00;;;;;;6107535;23;20017;-92
2022/07/21 10:23:47;;;;;;;4.68;3.22;;;21.30;1.00;;;;;;6132992;23;20017;-92
2022/07/21 10:26:15;;;;;;;3.95;3.03;;;21.30;1.00;;;;;;6109791;23;20030;-92
2022/07/21 10:28:43;;;;;;;4.20;3.08;;;21.30;1.00;;;;;;6132151;23;20084;-92
2022/07/21 10:31:15;;;;;;;5.40;3.55;;;21.30;1.00;;;;;;6131957;23;20119;-92
2022/07/21 10:33:45;;;;;;;5.93;3.88;;;21.30;1.00;;;;;;6107697;23;20027;-92
2022/07/21 10:36:27;;;;;;;4.68;2.92;;;21.30;1.00;;;;;;6156247;23;20029;-92
2022/07/21 10:39:10;;;;;;;4.77;3.30;;;21.30;1.00;;;;;;6132065;23;20103;-93
2022/07/21 10:41:39;;;;;;;5.13;3.70;;;21.30;1.00;;;;;;6132060;23;20327;-91
2022/07/21 10:44:27;;;;;;;5.28;3.22;;;21.30;1.00;;;;;;6107420;23;20017;-92
2022/07/21 10:47:05;;;;;;;6.25;3.50;;;21.40;1.00;;;;;;6131597;23;20445;-92
2022/07/21 10:49:42;;;;;;;5.07;3.95;;;21.40;1.00;;;;;;6156224;23;20024;-92
2022/07/21 10:52:41;;;;;;;4.43;2.70;;;21.30;1.00;;;;;;6131490;23;20026;-93
2022/07/21 10:55:23;;;;;;;8.40;3.42;;;21.40;1.00;;;;;;6131343;23;20068;-92
2022/07/21 10:58:14;;;;;;;6.47;3.00;;;21.30;1.00;;;;;;6132094;23;20013;-92
2022/07/21 11:00:50;;;;;;;5.90;3.40;;;21.30;1.00;;;;;;6133125;23;20017;-91
2022/07/21 11:03:26;;;;;;;4.40;3.10;;;21.30;1.00;;;;;;6108007;23;20060;-91
2022/07/21 11:06:06;;;;;;;6.03;3.50;;;21.30;1.00;;;;;;6179246;23;19998;-92
2022/07/21 11:08:35;;;;;;;6.25;3.33;;;21.30;1.00;;;;;;6184063;23;19993;-91
2022/07/21 11:11:25;;;;;;;6.47;3.33;;;21.30;1.00;;;;;;6159323;23;20005;-92
2022/07/21 11:13:59;;;;;;;7.85;3.67;;;21.40;1.00;;;;;;6183838;23;20009;-92
2022/07/21 11:16:41;;;;;;;5.22;3.33;;;21.30;1.00;;;;;;6125577;23;20039;-92
2022/07/21 11:19:32;;;;;;;5.50;3.38;;;21.30;1.00;;;;;;6132359;23;20021;-92
2022/07/21 11:22:04;;;;;;;5.50;3.83;;;21.30;1.00;;;;;;6131777;23;20524;-93
2022/07/21 11:24:32;;;;;;;7.83;3.23;;;21.30;1.00;;;;;;6131910;23;20417;-92
2022/07/21 11:27:06;;;;;;;6.63;3.85;;;21.30;1.00;;;;;;6131167;23;20021;-92
2022/07/21 11:29:38;;;;;;;4.90;3.60;;;21.30;1.00;;;;;;6130925;23;20024;-93
2022/07/21 11:32:07;;;;;;;8.00;4.15;;;21.30;1.00;;;;;;6130414;23;20256;-92
2022/07/21 11:34:46;;;;;;;7.97;4.93;;;21.30;1.00;;;;;;6130721;23;20017;-92
2022/07/21 11:37:16;;;;;;;4.28;2.95;;;21.30;1.00;;;;;;6130988;23;20018;-92
2022/07/21 11:40:14;;;;;;;5.80;3.95;;;21.30;1.00;;;;;;6130821;23;20068;-92
2022/07/21 11:42:43;;;;;;;6.47;4.65;;;21.30;1.00;;;;;;6131000;23;20085;-92
2022/07/21 11:45:12;;;;;;;4.68;3.50;;;21.30;1.00;;;;;;6106243;23;20049;-93
2022/07/21 11:47:41;;;;;;;7.82;4.07;;;21.30;1.00;;;;;;6130939;23;20056;-92
2022/07/21 11:50:19;;;;;;;9.20;4.20;;;21.20;1.00;;;;;;6132828;23;20013;-92
2022/07/21 11:52:47;;;;;;;6.55;3.90;;;21.20;1.00;;;;;;6130734;23;20017;-92
2022/07/21 11:55:18;;;;;;;7.75;4.03;;;21.20;1.00;;;;;;6107464;23;20069;-92
2022/07/21 11:57:46;;;;;;;6.57;3.88;;;21.20;1.00;;;;;;6105829;23;20018;-92
2022/07/21 12:00:16;;;;;;;7.20;4.80;;;21.20;1.00;;;;;;6130425;23;20017;-92
2022/07/21 12:02:48;;;;;;;8.90;4.30;;;21.20;1.00;;;;;;6130592;23;20032;-92
2022/07/21 12:05:16;;;;;;;4.53;4.03;;;21.20;1.00;;;;;;6130710;23;20257;-92
2022/07/21 12:07:48;;;;;;;6.95;3.40;;;21.10;1.00;;;;;;6130332;23;20351;-92
2022/07/21 12:10:23;;;;;;;6.18;4.22;;;21.10;1.00;;;;;;6131081;23;20327;-92
2022/07/21 12:12:51;;;;;;;4.25;3.50;;;21.10;1.00;;;;;;6107311;23;20104;-92
2022/07/21 12:15:28;;;;;;;6.40;3.45;;;21.10;1.00;;;;;;6130878;23;20017;-92
2022/07/21 12:17:58;;;;;;;4.70;4.00;;;21.00;1.00;;;;;;6131430;23;20017;-92
2022/07/21 12:20:36;;;;;;;6.30;2.90;;;21.00;1.00;;;;;;6131171;23;20018;-92
2022/07/21 12:23:22;;;;;;;6.68;3.78;;;21.00;1.00;;;;;;6106922;23;20116;-92
2022/07/21 12:25:49;;;;;;;3.42;2.20;;;20.90;1.00;;;;;;6130182;23;20052;-91
2022/07/21 12:28:44;;;;;;;3.78;2.55;;;20.90;1.00;;;;;;6107752;23;20029;-91
2022/07/21 12:31:14;;;;;;;5.40;2.60;;;20.90;1.00;;;;;;6106469;23;20393;-92
2022/07/21 12:33:42;;;;;;;6.53;2.90;;;20.90;1.00;;;;;;6131203;23;20056;-93
2022/07/21 12:36:29;;;;;;;3.53;2.80;;;20.90;1.00;;;;;;6131006;23;20026;-91
2022/07/21 12:42:27;;;;;;;2.45;2.10;;;20.90;1.00;;;;;;6131571;23;20323;-92
2022/07/21 12:45:21;;;;;;;5.30;2.75;;;20.90;1.00;;;;;;6130879;23;20021;-92
2022/07/21 12:48:22;;;;;;;5.72;2.45;;;20.90;1.00;;;;;;6106223;23;20080;-92
2022/07/21 12:51:00;;;;;;;4.03;1.33;;;20.90;1.00;;;;;;6103079;23;20454;-92
2022/07/21 12:54:03;;;;;;;7.15;1.65;;;20.80;1.00;;;;;;6131357;23;20361;-92
2022/07/21 12:56:57;;;;;;;5.22;1.10;;;20.60;1.00;;;;;;6136414;23;20017;-93
2022/07/21 12:59:52;;;;;;;4.93;1.27;;;20.50;1.00;;;;;;6111679;23;20017;-93
2022/07/21 13:02:29;;;;;;;2.47;1.30;;;20.40;1.00;;;;;;6109481;23;20041;-92
2022/07/21 13:05:54;;;;;;;;;;;;;;;;;;;;;
2022/07/21 13:09:32;;;;;;;6.00;1.33;;;20.20;1.00;;;;;;6153093;23;20072;-93
2022/07/21 13:12:14;;;;;;;4.32;1.55;;;20.00;1.00;;;;;;6131523;23;20449;-93
2022/07/21 13:14:59;;;;;;;8.52;1.58;;;20.10;1.00;;;;;;6115060;23;20138;-92
2022/07/21 13:18:08;;;;;;;10.20;2.00;;;20.00;1.00;;;;;;6131678;23;20104;-93
2022/07/21 13:26:11;;;;;;;5.65;1.13;;;20.00;1.00;;;;;;6032541;23;20075;-92
2022/07/21 13:38:56;;;;;;;;;;;;;;;;;;;;;
2022/07/21 13:42:25;;;;;;;4.55;1.08;;;19.80;1.00;;;;;;5872890;24;20023;-92
2022/07/21 13:52:10;;;;;;;6.55;1.52;;;19.50;1.00;;;;;;6158658;23;19920;-93
2022/07/21 14:15:33;;;;;;;4.22;1.10;;;19.20;1.00;;;;;;6107473;23;20023;-92
2022/07/21 14:27:02;;;;;;;;;;;;;;;;;;;;;
2022/07/21 14:30:14;;;;;;;2.78;0.65;;;19.20;1.00;;;;;;6040058;23;20054;-93
2022/07/21 14:38:15;;;;;;;2.03;0.52;;;19.20;1.00;;;;;;6070325;23;20034;-92
2022/07/21 14:41:27;;;;;;;4.20;0.85;;;19.30;1.00;;;;;;6067829;23;20098;-94
2022/07/21 14:45:48;;;;;;;3.40;0.93;;;18.90;1.00;;;;;;5968953;24;20031;-92
2022/07/21 14:52:28;;;;;;;5.88;0.80;;;19.50;1.00;;;;;;5982929;24;20077;-92
2022/07/21 14:56:35;;;;;;;;;;;;;;;;;;;;;
2022/07/21 15:00:02;;;;;;;5.50;1.05;;;19.30;1.00;;;;;;5899888;24;20033;-93
2022/07/21 15:02:48;;;;;;;4.47;1.13;;;19.20;1.00;;;;;;5906149;24;20043;-93
2022/07/21 15:06:48;;;;;;;4.88;0.85;;;19.20;1.00;;;;;;5939287;24;20141;-94
2022/07/21 15:10:15;;;;;;;3.63;0.70;;;19.30;1.00;;;;;;5913590;24;20342;-93
2022/07/21 15:13:05;;;;;;;5.18;1.25;;;19.30;1.00;;;;;;5909157;24;20021;-93
2022/07/21 15:20:25;;;;;;;9.50;0.95;;;19.40;1.00;;;;;;6073718;23;20038;-93
2022/07/21 15:23:52;;;;;;;6.43;1.35;;;19.10;1.00;;;;;;6075702;23;20359;-93
2022/07/21 15:43:28;;;;;;;;;;;;;;;;;;;;;
2022/07/21 15:46:45;;;;;;;7.53;1.42;;;19.10;1.00;;;;;;5959877;24;20102;-92
2022/07/21 15:50:09;;;;;;;;;;;;;;;;;;;;;
2022/07/21 15:53:44;;;;;;;7.60;1.70;;;18.90;1.00;;;;;;6128466;23;20021;-93
2022/07/21 16:12:31;;;;;;;6.50;1.80;;;19.00;1.00;;;;;;5983812;23;20101;-94
2022/07/21 16:19:17;;;;;;;10.07;1.85;;;19.20;1.00;;;;;;6153478;23;20021;-93
2022/07/21 16:22:35;;;;;;;;;;;;;;;;;;;;;
2022/07/21 16:25:58;;;;;;;10.02;2.05;;;18.90;1.00;;;;;;6154580;23;20034;-93
2022/07/21 16:28:45;;;;;;;2.78;1.30;;;19.20;1.00;;;;;;6126438;23;20018;-92
2022/07/21 16:31:39;;;;;;;5.80;2.03;;;19.00;1.00;;;;;;6099026;23;20018;-93
2022/07/21 16:38:08;;;;;;;8.95;1.55;;;19.00;1.00;;;;;;6101357;23;20077;-93
2022/07/21 16:41:04;;;;;;;6.45;2.25;;;19.00;1.00;;;;;;6103672;23;20109;-93
2022/07/21 16:44:10;;;;;;;5.05;1.45;;;19.00;1.00;;;;;;6078763;23;20033;-92
2022/07/21 16:47:07;;;;;;;6.43;1.65;;;19.00;1.00;;;;;;6101505;23;20017;-93
2022/07/21 16:53:21;;;;;;;9.45;1.67;;;18.90;1.00;;;;;;6102971;23;20414;-94
2022/07/21 16:56:38;;;;;;;6.82;1.60;;;19.00;1.00;;;;;;6080767;23;20022;-94
2022/07/21 16:59:24;;;;;;;5.20;2.40;;;19.10;1.00;;;;;;6104011;23;20014;-93
2022/07/21 17:02:02;;;;;;;5.28;1.20;;;19.10;1.00;;;;;;6105602;23;20026;-88
2022/07/21 17:04:32;;;;;;;2.55;0.90;;;18.90;1.00;;;;;;6103542;23;20018;-89
2022/07/21 17:07:19;;;;;;;8.65;1.15;;;19.00;1.00;;;;;;6107815;23;20101;-95
2022/07/21 18:20:17;;;;;;;7.90;1.35;;;18.90;1.00;;;;;;6158256;23;20037;-90
2022/07/21 18:22:45;;;;;;;4.28;1.45;;;18.80;1.00;;;;;;6106910;23;20024;-88
2022/07/21 18:25:12;;;;;;;2.33;0.55;;;18.60;1.00;;;;;;6108099;23;20022;-88
2022/07/21 18:27:39;;;;;;;2.58;1.02;;;18.60;1.00;;;;;;6079070;23;20056;-89
2022/07/21 18:35:03;;;;;;;4.38;0.82;;;18.50;1.00;;;;;;6060244;23;20501;-93
2022/07/21 19:10:06;;;;;;;3.38;1.27;;;18.40;1.00;;;;;;6071593;23;20030;-89
2022/07/21 19:12:33;;;;;;;8.82;1.10;;;18.40;1.00;;;;;;6069493;23;20015;-88
2022/07/21 19:15:00;;;;;;;5.32;1.02;;;18.40;1.00;;;;;;6065235;23;20050;-86
2022/07/21 19:17:27;;;;;;;4.45;0.88;;;18.40;1.00;;;;;;6096815;23;20018;-88
2022/07/21 19:19:55;;;;;;;6.45;1.48;;;18.50;1.00;;;;;;6098403;23;20019;-86
2022/07/21 19:22:23;;;;;;;4.47;1.17;;;18.50;1.00;;;;;;6072753;23;20019;-87
2022/07/21 19:24:54;;;;;;;3.97;1.10;;;18.50;1.00;;;;;;6094745;23;20026;-88
2022/07/21 19:27:22;;;;;;;4.75;1.58;;;18.40;1.00;;;;;;6069664;23;20549;-88
2022/07/21 19:29:52;;;;;;;5.57;1.88;;;18.40;1.00;;;;;;6095414;23;20061;-89
2022/07/21 19:37:13;;;;;;;7.07;0.90;;;18.40;1.00;;;;;;6097688;23;20065;-92
2022/07/21 19:39:46;;;;;;;5.78;1.92;;;18.30;1.00;;;;;;6098349;23;20018;-91
2022/07/21 19:42:13;;;;;;;3.38;0.73;;;18.30;1.00;;;;;;6072678;23;20477;-89
2022/07/21 19:44:43;;;;;;;6.05;1.42;;;18.40;1.00;;;;;;6097079;23;20010;-92
2022/07/21 19:50:29;;;;;;;4.15;1.75;;;18.20;1.00;;;;;;6073225;23;20069;-87
